createdAt,value
2023-05-18T00:00:34.300Z,16.33
2023-05-18T00:03:03.435Z,16.30
2023-05-18T00:05:34.387Z,16.45
2023-05-18T00:08:01.830Z,16.43
2023-05-18T00:10:29.864Z,16.42
2023-05-18T00:12:57.036Z,16.38
2023-05-18T00:15:24.267Z,16.33
2023-05-18T00:17:53.545Z,16.35
2023-05-18T00:20:22.320Z,15.96
2023-05-18T00:22:50.979Z,16.36
2023-05-18T00:25:18.106Z,16.33
2023-05-18T00:27:45.147Z,16.32
2023-05-18T00:30:12.992Z,16.31
2023-05-18T00:32:40.137Z,16.25
2023-05-18T00:35:07.833Z,16.29
2023-05-18T00:37:35.000Z,16.19
2023-05-18T00:40:02.252Z,16.15
2023-05-18T00:42:31.760Z,16.12
2023-05-18T00:44:58.841Z,16.12
2023-05-18T00:47:25.911Z,16.08
2023-05-18T00:49:53.063Z,15.98
2023-05-18T00:52:21.629Z,15.95
2023-05-18T00:54:49.580Z,15.99
2023-05-18T00:57:19.203Z,15.98
2023-05-18T00:59:47.537Z,15.98
2023-05-18T01:02:15.859Z,15.62
2023-05-18T01:04:43.236Z,15.88
2023-05-18T01:07:11.375Z,15.90
2023-05-18T01:09:39.107Z,15.91
2023-05-18T01:12:13.032Z,15.90
2023-05-18T01:14:54.616Z,15.92
2023-05-18T01:17:37.894Z,15.89
2023-05-18T01:20:12.015Z,15.73
2023-05-18T01:23:10.305Z,15.91
2023-05-18T01:25:55.714Z,15.88
2023-05-18T01:28:33.616Z,15.80
2023-05-18T01:31:01.684Z,15.76
2023-05-18T01:33:28.900Z,15.73
2023-05-18T01:35:56.119Z,15.78
2023-05-18T01:38:26.674Z,15.74
2023-05-18T01:41:00.189Z,15.71
2023-05-18T01:43:52.065Z,15.71
2023-05-18T01:46:43.830Z,15.76
2023-05-18T01:49:24.166Z,15.72
2023-05-18T01:51:54.253Z,15.53
2023-05-18T01:54:23.588Z,15.58
2023-05-18T01:56:54.449Z,15.47
2023-05-18T01:59:24.182Z,15.55
2023-05-18T02:01:52.004Z,15.56
2023-05-18T02:04:27.964Z,15.41
2023-05-18T02:06:55.701Z,15.30
2023-05-18T02:09:23.345Z,15.26
2023-05-18T02:11:51.444Z,15.35
2023-05-18T02:14:18.674Z,15.38
2023-05-18T02:16:47.417Z,15.32
2023-05-18T02:19:15.322Z,15.32
2023-05-18T02:21:43.733Z,15.14
2023-05-18T02:24:12.589Z,15.20
2023-05-18T02:26:41.809Z,15.24
2023-05-18T02:29:11.927Z,15.32
2023-05-18T02:31:39.392Z,15.29
2023-05-18T02:34:07.086Z,15.24
2023-05-18T02:36:43.036Z,15.30
2023-05-18T02:39:10.672Z,15.37
2023-05-18T02:41:38.306Z,15.33
2023-05-18T02:44:06.405Z,15.42
2023-05-18T02:46:33.546Z,15.46
2023-05-18T02:49:00.843Z,15.48
2023-05-18T02:51:30.086Z,15.55
2023-05-18T02:53:57.729Z,15.49
2023-05-18T02:56:25.371Z,15.79
2023-05-18T02:59:04.024Z,15.88
2023-05-18T03:01:37.961Z,15.94
2023-05-18T03:04:05.874Z,15.93
2023-05-18T03:06:36.191Z,16.02
2023-05-18T03:09:03.593Z,16.11
2023-05-18T03:11:39.018Z,16.04
2023-05-18T03:14:06.125Z,16.19
2023-05-18T03:16:33.635Z,16.25
2023-05-18T03:19:02.832Z,16.33
2023-05-18T03:21:36.960Z,16.39
2023-05-18T03:24:04.582Z,16.38
2023-05-18T03:26:34.067Z,16.49
2023-05-18T03:29:03.873Z,16.53
2023-05-18T03:31:31.202Z,16.56
2023-05-18T03:34:00.415Z,16.65
2023-05-18T03:36:28.400Z,16.68
2023-05-18T03:38:55.969Z,16.72
2023-05-18T03:41:23.812Z,16.83
2023-05-18T03:43:52.596Z,16.90
2023-05-18T03:46:19.767Z,16.96
2023-05-18T03:48:46.840Z,16.91
2023-05-18T03:51:17.739Z,17.11
2023-05-18T03:53:44.795Z,17.17
2023-05-18T03:56:13.449Z,17.27
2023-05-18T03:58:42.538Z,17.33
2023-05-18T04:01:10.028Z,17.40
2023-05-18T04:03:37.284Z,17.34
2023-05-18T04:06:06.533Z,17.34
2023-05-18T04:08:34.611Z,17.47
2023-05-18T04:11:01.756Z,17.68
2023-05-18T04:13:29.155Z,17.87
2023-05-18T04:15:58.608Z,18.04
2023-05-18T04:18:30.298Z,18.23
2023-05-18T04:20:57.669Z,18.30
2023-05-18T04:23:24.749Z,18.47
2023-05-18T04:25:51.870Z,18.56
2023-05-18T04:28:19.450Z,18.68
2023-05-18T04:30:47.747Z,18.76
2023-05-18T04:33:16.461Z,18.85
2023-05-18T04:35:45.153Z,18.87
2023-05-18T04:38:13.429Z,19.06
2023-05-18T04:40:42.840Z,19.16
2023-05-18T04:43:11.546Z,19.27
2023-05-18T04:45:39.353Z,19.40
2023-05-18T04:48:06.852Z,19.28
2023-05-18T04:50:33.991Z,19.71
2023-05-18T04:53:02.578Z,19.81
2023-05-18T04:55:31.294Z,19.87
2023-05-18T04:58:03.684Z,19.99
2023-05-18T05:00:31.444Z,20.08
2023-05-18T05:02:59.500Z,20.15
2023-05-18T05:05:27.634Z,20.25
2023-05-18T05:07:56.000Z,20.31
2023-05-18T05:10:23.431Z,20.37
2023-05-18T05:12:51.585Z,20.47
2023-05-18T05:15:20.140Z,20.56
2023-05-18T05:17:50.163Z,20.63
2023-05-18T05:20:18.652Z,20.81
2023-05-18T05:22:45.923Z,20.85
2023-05-18T05:25:16.389Z,20.95
2023-05-18T05:27:44.541Z,21.15
2023-05-18T05:30:12.667Z,21.27
2023-05-18T05:32:42.092Z,21.43
2023-05-18T05:35:09.677Z,21.57
2023-05-18T05:37:37.273Z,21.67
2023-05-18T05:40:06.743Z,21.69
2023-05-18T05:42:38.923Z,21.84
2023-05-18T05:45:06.918Z,21.88
2023-05-18T05:47:40.869Z,21.98
2023-05-18T05:50:08.665Z,22.16
2023-05-18T05:52:36.815Z,22.16
2023-05-18T05:55:05.783Z,22.36
2023-05-18T05:57:34.003Z,22.46
2023-05-18T06:00:01.757Z,22.56
2023-05-18T06:02:34.351Z,22.64
2023-05-18T06:05:01.949Z,22.75
2023-05-18T06:07:31.691Z,22.85
2023-05-18T06:09:59.008Z,22.97
2023-05-18T06:12:26.144Z,23.08
2023-05-18T06:14:57.514Z,23.21
2023-05-18T06:17:26.196Z,23.33
2023-05-18T06:19:54.728Z,23.42
2023-05-18T06:22:21.793Z,23.55
2023-05-18T06:25:10.884Z,23.80
2023-05-18T06:27:58.296Z,24.03
2023-05-18T06:30:51.591Z,24.29
2023-05-18T06:33:31.360Z,24.47
2023-05-18T06:35:58.605Z,24.66
2023-05-18T06:38:25.767Z,24.88
2023-05-18T06:40:52.886Z,25.21
2023-05-18T06:43:20.354Z,25.43
2023-05-18T06:45:57.267Z,25.44
2023-05-18T06:48:31.176Z,25.53
2023-05-18T06:50:58.327Z,25.49
2023-05-18T06:53:26.468Z,25.40
2023-05-18T06:55:53.590Z,25.47
2023-05-18T06:58:20.998Z,25.17
2023-05-18T07:00:49.464Z,25.31
2023-05-18T07:03:17.451Z,25.46
2023-05-18T07:05:44.721Z,25.47
2023-05-18T07:08:11.922Z,25.49
2023-05-18T07:10:39.005Z,25.51
2023-05-18T07:13:06.227Z,25.45
2023-05-18T07:15:33.588Z,25.49
2023-05-18T07:18:00.847Z,25.62
2023-05-18T07:20:28.117Z,25.55
2023-05-18T07:22:56.075Z,25.69
2023-05-18T07:25:23.951Z,25.70
2023-05-18T07:27:54.827Z,25.69
2023-05-18T07:30:22.877Z,25.79
2023-05-18T07:32:51.552Z,25.87
2023-05-18T07:35:28.254Z,25.91
2023-05-18T07:37:55.380Z,25.91
2023-05-18T07:40:22.516Z,25.98
2023-05-18T07:42:49.585Z,25.94
2023-05-18T07:45:16.764Z,25.93
2023-05-18T07:47:43.979Z,25.97
2023-05-18T07:50:11.657Z,25.88
2023-05-18T07:52:38.702Z,25.81
2023-05-18T07:55:06.462Z,25.73
2023-05-18T07:57:35.538Z,25.67
2023-05-18T08:00:05.120Z,25.55
2023-05-18T08:02:40.532Z,25.47
2023-05-18T08:05:09.572Z,25.39
2023-05-18T08:07:36.879Z,25.30
2023-05-18T08:10:04.645Z,25.20
2023-05-18T08:12:32.613Z,25.18
2023-05-18T08:14:59.715Z,25.20
2023-05-18T08:17:26.909Z,25.26
2023-05-18T08:19:54.947Z,25.34
2023-05-18T08:22:21.998Z,25.49
2023-05-18T08:24:49.091Z,25.58
2023-05-18T08:27:16.181Z,25.65
2023-05-18T08:29:43.266Z,25.85
2023-05-18T08:32:10.488Z,25.94
2023-05-18T08:34:37.963Z,26.01
2023-05-18T08:37:05.312Z,26.01
2023-05-18T08:39:32.594Z,26.15
2023-05-18T08:42:09.954Z,26.19
2023-05-18T08:44:48.462Z,26.36
2023-05-18T08:47:17.069Z,26.43
2023-05-18T08:49:47.012Z,26.54
2023-05-18T08:52:19.318Z,26.54
2023-05-18T08:54:47.249Z,26.75
2023-05-18T08:57:16.696Z,26.71
2023-05-18T08:59:45.357Z,26.79
2023-05-18T09:02:13.735Z,26.83
2023-05-18T09:04:42.714Z,26.86
2023-05-18T09:07:11.136Z,26.93
2023-05-18T09:09:38.841Z,26.96
2023-05-18T09:12:06.778Z,26.84
2023-05-18T09:14:34.038Z,26.88
2023-05-18T09:17:01.146Z,26.76
2023-05-18T09:19:28.897Z,26.55
2023-05-18T09:21:56.005Z,26.61
2023-05-18T09:24:24.870Z,26.59
2023-05-18T09:26:52.438Z,26.62
2023-05-18T09:29:21.410Z,26.72
2023-05-18T09:31:49.242Z,26.94
2023-05-18T09:34:19.471Z,27.00
2023-05-18T09:36:57.158Z,27.16
2023-05-18T09:39:24.268Z,27.20
2023-05-18T09:41:57.331Z,27.30
2023-05-18T09:44:37.247Z,27.45
2023-05-18T09:47:12.279Z,27.34
2023-05-18T09:49:40.857Z,27.26
2023-05-18T09:52:09.424Z,27.37
2023-05-18T09:54:37.843Z,27.38
2023-05-18T09:59:36.896Z,27.13
2023-05-18T10:02:06.234Z,27.22
2023-05-18T10:04:41.952Z,27.27
2023-05-18T10:07:17.412Z,27.27
2023-05-18T10:09:46.648Z,27.29
2023-05-18T10:12:19.983Z,27.24
2023-05-18T10:14:47.137Z,27.14
2023-05-18T10:17:17.073Z,27.02
2023-05-18T10:19:45.859Z,26.96
2023-05-18T10:22:16.352Z,26.84
2023-05-18T10:24:49.451Z,26.76
2023-05-18T10:27:20.150Z,26.71
2023-05-18T10:29:47.302Z,26.73
2023-05-18T10:32:16.863Z,26.69
2023-05-18T10:34:45.168Z,26.84
2023-05-18T10:37:14.576Z,26.86
2023-05-18T10:39:45.839Z,26.81
2023-05-18T10:42:16.404Z,26.84
2023-05-18T10:44:45.534Z,26.80
2023-05-18T10:47:15.187Z,26.72
2023-05-18T10:49:48.752Z,26.93
2023-05-18T10:52:17.982Z,26.95
2023-05-18T10:54:46.173Z,27.12
2023-05-18T10:57:18.555Z,27.19
2023-05-18T10:59:48.356Z,27.16
2023-05-18T11:02:18.472Z,26.85
2023-05-18T11:04:48.005Z,27.23
2023-05-18T11:07:15.789Z,26.99
2023-05-18T11:09:44.174Z,27.35
2023-05-18T11:12:16.407Z,27.47
2023-05-18T11:14:54.429Z,27.58
2023-05-18T11:17:26.342Z,27.65
2023-05-18T11:20:09.069Z,27.78
2023-05-18T11:23:01.762Z,27.79
2023-05-18T11:25:28.866Z,27.89
2023-05-18T11:28:02.343Z,27.75
2023-05-18T11:30:33.430Z,27.83
2023-05-18T11:33:23.357Z,27.92
2023-05-18T11:36:13.678Z,27.98
2023-05-18T11:39:05.085Z,28.02
2023-05-18T11:41:33.242Z,27.96
2023-05-18T11:44:15.441Z,28.01
2023-05-18T11:46:54.242Z,28.02
2023-05-18T11:49:23.791Z,28.05
2023-05-18T11:52:21.371Z,27.90
2023-05-18T11:54:57.103Z,27.85
2023-05-18T11:57:34.230Z,27.97
2023-05-18T12:00:06.481Z,27.95
2023-05-18T12:02:46.617Z,28.01
2023-05-18T12:05:14.771Z,27.96
2023-05-18T12:07:42.849Z,27.91
2023-05-18T12:10:17.757Z,27.90
2023-05-18T12:12:49.443Z,27.84
2023-05-18T12:15:17.392Z,27.78
2023-05-18T12:17:46.896Z,27.74
2023-05-18T12:20:22.681Z,27.69
2023-05-18T12:22:53.813Z,27.65
2023-05-18T12:25:23.532Z,27.53
2023-05-18T12:27:52.331Z,27.36
2023-05-18T12:30:25.122Z,27.25
2023-05-18T12:32:57.029Z,27.09
2023-05-18T12:35:29.067Z,27.14
2023-05-18T12:38:00.285Z,27.12
2023-05-18T12:40:28.230Z,27.10
2023-05-18T12:42:55.872Z,27.15
2023-05-18T12:45:28.151Z,27.14
2023-05-18T12:47:56.454Z,27.09
2023-05-18T12:50:27.756Z,27.08
2023-05-18T12:52:56.673Z,27.04
2023-05-18T12:55:27.787Z,27.09
2023-05-18T12:58:13.066Z,27.11
2023-05-18T13:00:44.226Z,27.03
2023-05-18T13:03:16.066Z,27.01
2023-05-18T13:05:45.955Z,27.05
2023-05-18T13:08:19.327Z,27.00
2023-05-18T13:10:50.820Z,27.01
2023-05-18T13:13:20.182Z,26.97
2023-05-18T13:15:47.411Z,26.92
2023-05-18T13:18:15.301Z,26.79
2023-05-18T13:20:50.937Z,26.83
2023-05-18T13:23:26.703Z,26.71
2023-05-18T13:25:55.424Z,26.82
2023-05-18T13:28:23.766Z,26.83
2023-05-18T13:30:50.910Z,26.73
2023-05-18T13:33:19.353Z,26.77
2023-05-18T13:35:48.729Z,26.68
2023-05-18T13:38:16.003Z,26.70
2023-05-18T13:40:43.203Z,26.67
2023-05-18T13:43:12.023Z,26.69
2023-05-18T13:45:41.173Z,26.76
2023-05-18T13:48:10.743Z,26.74
2023-05-18T13:50:38.483Z,26.73
2023-05-18T13:53:05.512Z,26.67
2023-05-18T13:55:33.635Z,26.59
2023-05-18T13:58:01.048Z,26.61
2023-05-18T14:00:28.280Z,26.35
2023-05-18T14:02:56.754Z,26.42
2023-05-18T14:05:24.210Z,26.36
2023-05-18T14:07:54.544Z,26.52
2023-05-18T14:10:21.634Z,26.31
2023-05-18T14:12:49.423Z,26.56
2023-05-18T14:15:16.574Z,26.53
2023-05-18T14:17:44.032Z,26.49
2023-05-18T14:20:12.464Z,26.49
2023-05-18T14:22:40.291Z,26.44
2023-05-18T14:25:07.528Z,26.40
2023-05-18T14:27:34.641Z,26.27
2023-05-18T14:30:01.857Z,26.02
2023-05-18T14:32:28.896Z,26.12
2023-05-18T14:34:58.212Z,26.15
2023-05-18T14:37:25.749Z,26.05
2023-05-18T14:39:52.903Z,25.99
2023-05-18T14:42:20.039Z,25.90
2023-05-18T14:44:47.260Z,25.84
2023-05-18T14:47:14.425Z,25.71
2023-05-18T14:49:41.454Z,25.75
2023-05-18T14:52:08.457Z,25.64
2023-05-18T14:54:35.523Z,25.68
2023-05-18T14:57:02.533Z,25.68
2023-05-18T14:59:29.472Z,25.64
2023-05-18T15:01:56.526Z,25.61
2023-05-18T15:04:23.775Z,25.68
2023-05-18T15:06:50.887Z,25.70
2023-05-18T15:09:17.809Z,25.65
2023-05-18T15:11:44.852Z,25.70
2023-05-18T15:14:11.852Z,25.69
2023-05-18T15:16:39.104Z,25.65
2023-05-18T15:19:06.424Z,25.62
2023-05-18T15:21:33.447Z,25.57
2023-05-18T15:24:00.512Z,25.46
2023-05-18T15:26:27.746Z,25.39
2023-05-18T15:28:54.814Z,25.41
2023-05-18T15:31:21.808Z,25.26
2023-05-18T15:33:48.852Z,25.15
2023-05-18T15:36:16.208Z,25.10
2023-05-18T15:38:43.156Z,25.08
2023-05-18T15:41:10.150Z,25.04
2023-05-18T15:43:37.696Z,24.97
2023-05-18T15:46:05.378Z,24.86
2023-05-18T15:48:32.409Z,24.88
2023-05-18T15:50:59.378Z,24.83
2023-05-18T15:53:26.466Z,24.80
2023-05-18T15:55:58.761Z,24.74
2023-05-18T15:58:26.930Z,24.70
2023-05-18T16:00:54.225Z,24.58
2023-05-18T16:03:21.489Z,24.53
2023-05-18T16:05:48.700Z,24.39
2023-05-18T16:08:15.666Z,24.32
2023-05-18T16:10:42.814Z,24.26
2023-05-18T16:13:09.824Z,24.13
2023-05-18T16:15:37.080Z,24.06
2023-05-18T16:18:04.453Z,23.95
2023-05-18T16:20:31.791Z,23.85
2023-05-18T16:22:59.152Z,23.77
2023-05-18T16:25:26.600Z,23.70
2023-05-18T16:27:53.620Z,23.62
2023-05-18T16:30:20.671Z,23.47
2023-05-18T16:32:47.684Z,23.45
2023-05-18T16:35:14.672Z,23.36
2023-05-18T16:37:41.757Z,23.25
2023-05-18T16:40:09.110Z,23.19
2023-05-18T16:42:36.236Z,23.14
2023-05-18T16:45:03.544Z,23.09
2023-05-18T16:47:33.729Z,22.97
2023-05-18T16:50:01.011Z,22.91
2023-05-18T16:52:28.122Z,22.84
2023-05-18T16:54:55.152Z,22.72
2023-05-18T16:57:22.323Z,22.70
2023-05-18T16:59:49.418Z,22.61
2023-05-18T17:02:17.962Z,22.55
2023-05-18T17:04:50.067Z,22.43
2023-05-18T17:07:17.317Z,22.42
2023-05-18T17:09:44.625Z,22.35
2023-05-18T17:12:12.284Z,22.32
2023-05-18T17:14:39.567Z,22.26
2023-05-18T17:17:07.642Z,22.22
2023-05-18T17:19:39.509Z,22.16
2023-05-18T17:22:06.560Z,22.05
2023-05-18T17:24:33.568Z,22.03
2023-05-18T17:27:00.783Z,21.99
2023-05-18T17:29:27.768Z,21.90
2023-05-18T17:31:55.033Z,21.85
2023-05-18T17:34:22.790Z,21.72
2023-05-18T17:36:49.968Z,21.71
2023-05-18T17:39:16.964Z,21.70
2023-05-18T17:41:44.343Z,21.62
2023-05-18T17:44:14.319Z,21.62
2023-05-18T17:46:41.860Z,21.59
2023-05-18T17:49:09.284Z,21.50
2023-05-18T17:51:36.488Z,21.52
2023-05-18T17:54:04.087Z,21.49
2023-05-18T17:56:31.933Z,21.36
2023-05-18T17:58:59.348Z,21.40
2023-05-18T18:01:27.681Z,21.38
2023-05-18T18:03:55.815Z,21.26
2023-05-18T18:06:23.524Z,21.17
2023-05-18T18:08:57.751Z,21.25
2023-05-18T18:11:26.272Z,21.17
2023-05-18T18:13:53.759Z,21.13
2023-05-18T18:16:21.383Z,20.99
2023-05-18T18:18:48.813Z,21.03
2023-05-18T18:21:16.404Z,20.90
2023-05-18T18:23:43.513Z,20.91
2023-05-18T18:26:11.128Z,20.72
2023-05-18T18:28:38.757Z,20.78
2023-05-18T18:31:05.897Z,20.77
2023-05-18T18:33:33.516Z,20.73
2023-05-18T18:36:00.610Z,20.67
2023-05-18T18:38:28.902Z,20.58
2023-05-18T18:41:01.442Z,20.56
2023-05-18T18:43:29.091Z,20.41
2023-05-18T18:45:57.414Z,20.37
2023-05-18T18:48:25.631Z,20.38
2023-05-18T18:50:53.456Z,20.32
2023-05-18T18:53:20.693Z,20.30
2023-05-18T18:55:48.299Z,20.18
2023-05-18T18:58:15.880Z,20.25
2023-05-18T19:00:43.358Z,20.21
2023-05-18T19:03:10.635Z,20.17
2023-05-18T19:05:38.193Z,20.04
2023-05-18T19:08:05.552Z,20.07
2023-05-18T19:10:34.350Z,20.02
2023-05-18T19:13:05.867Z,19.97
2023-05-18T19:15:34.893Z,19.79
2023-05-18T19:18:04.132Z,19.83
2023-05-18T19:20:31.407Z,19.88
2023-05-18T19:22:58.784Z,19.72
2023-05-18T19:25:26.488Z,19.84
2023-05-18T19:27:54.206Z,19.50
2023-05-18T19:30:22.789Z,19.70
2023-05-18T19:32:52.574Z,19.73
2023-05-18T19:35:21.235Z,19.60
2023-05-18T19:37:48.379Z,19.52
2023-05-18T19:40:16.420Z,19.58
2023-05-18T19:42:44.008Z,19.56
2023-05-18T19:45:11.195Z,19.53
2023-05-18T19:47:38.481Z,19.41
2023-05-18T19:50:07.207Z,19.44
2023-05-18T19:52:34.841Z,19.42
2023-05-18T19:55:02.602Z,19.36
2023-05-18T19:57:33.222Z,19.41
2023-05-18T20:00:01.576Z,19.26
2023-05-18T20:02:35.325Z,19.33
2023-05-18T20:05:05.735Z,19.27
2023-05-18T20:07:34.199Z,19.23
2023-05-18T20:10:01.469Z,19.19
2023-05-18T20:12:33.802Z,19.15
2023-05-18T20:15:01.270Z,19.14
2023-05-18T20:17:32.648Z,19.09
2023-05-18T20:20:00.214Z,18.97
2023-05-18T20:22:27.675Z,19.01
2023-05-18T20:24:55.046Z,18.98
2023-05-18T20:27:22.330Z,18.93
2023-05-18T20:29:49.434Z,18.93
2023-05-18T20:32:16.572Z,18.95
2023-05-18T20:34:44.620Z,18.91
2023-05-18T20:37:14.162Z,18.85
2023-05-18T20:39:42.844Z,18.85
2023-05-18T20:42:12.889Z,18.80
2023-05-18T20:44:40.131Z,18.76
2023-05-18T20:47:07.432Z,18.78
2023-05-18T20:49:34.522Z,18.78
2023-05-18T20:52:01.597Z,18.63
2023-05-18T20:54:28.706Z,18.73
2023-05-18T20:56:56.274Z,18.57
2023-05-18T20:59:23.456Z,18.70
2023-05-18T21:01:51.212Z,18.67
2023-05-18T21:04:19.559Z,18.59
2023-05-18T21:06:47.031Z,18.53
2023-05-18T21:09:14.146Z,18.51
2023-05-18T21:11:41.794Z,18.46
2023-05-18T21:14:09.264Z,18.53
2023-05-18T21:16:36.788Z,18.50
2023-05-18T21:19:04.090Z,18.46
2023-05-18T21:21:31.842Z,18.36
2023-05-18T21:23:59.019Z,18.39
2023-05-18T21:26:26.671Z,18.28
2023-05-18T21:28:54.315Z,18.36
2023-05-18T21:31:21.583Z,18.20
2023-05-18T21:33:48.790Z,18.29
2023-05-18T21:36:16.276Z,18.20
2023-05-18T21:38:43.366Z,18.23
2023-05-18T21:41:10.680Z,18.22
2023-05-18T21:43:37.707Z,18.24
2023-05-18T21:46:06.441Z,18.20
2023-05-18T21:48:34.969Z,18.18
2023-05-18T21:51:03.993Z,18.11
2023-05-18T21:53:31.077Z,18.10
2023-05-18T21:55:58.161Z,18.09
2023-05-18T21:58:25.660Z,17.92
2023-05-18T22:00:52.848Z,18.06
2023-05-18T22:03:20.051Z,18.00
2023-05-18T22:05:47.353Z,18.06
2023-05-18T22:08:14.485Z,18.06
2023-05-18T22:10:41.779Z,18.01
2023-05-18T22:13:09.512Z,17.99
2023-05-18T22:15:37.458Z,17.94
2023-05-18T22:18:04.872Z,17.89
2023-05-18T22:20:33.260Z,17.94
2023-05-18T22:23:00.487Z,17.89
2023-05-18T22:25:27.723Z,17.91
2023-05-18T22:27:55.071Z,17.91
2023-05-18T22:30:24.007Z,17.87
2023-05-18T22:32:52.020Z,17.86
2023-05-18T22:35:19.304Z,17.82
2023-05-18T22:37:46.903Z,17.88
2023-05-18T22:40:14.020Z,17.87
2023-05-18T22:42:41.135Z,17.89
2023-05-18T22:45:10.170Z,17.91
2023-05-18T22:47:39.561Z,17.85
2023-05-18T22:50:07.607Z,17.84
2023-05-18T22:52:35.142Z,17.99
2023-05-18T22:55:03.903Z,17.89
2023-05-18T22:57:33.244Z,17.99
2023-05-18T23:00:00.831Z,17.99
2023-05-18T23:02:28.297Z,17.99
2023-05-18T23:04:55.434Z,18.01
2023-05-18T23:07:24.704Z,17.97
2023-05-18T23:09:52.384Z,18.00
2023-05-18T23:12:20.521Z,17.91
2023-05-18T23:14:49.809Z,18.03
2023-05-18T23:17:18.906Z,17.88
2023-05-18T23:19:48.424Z,18.01
2023-05-18T23:22:15.722Z,17.64
2023-05-18T23:24:43.536Z,17.98
2023-05-18T23:27:11.347Z,17.91
2023-05-18T23:29:39.005Z,17.98
2023-05-18T23:32:06.295Z,17.96
2023-05-18T23:34:33.650Z,17.58
2023-05-18T23:37:06.706Z,17.84
2023-05-18T23:39:34.777Z,17.83
2023-05-18T23:42:02.783Z,17.76
2023-05-18T23:44:30.188Z,17.81
2023-05-18T23:46:57.528Z,17.79
2023-05-18T23:49:24.940Z,17.71
2023-05-18T23:51:53.208Z,17.75
2023-05-18T23:54:21.007Z,17.67
2023-05-18T23:56:50.598Z,17.48
2023-05-18T23:59:18.198Z,17.60
